Time;durP1;ratioP1;P1;durP2;ratioP2;P2;SDS_P1;SDS_P2;PMS_P1;PMS_P2;Temp;Humidity;BMP_temperature;BMP_pressure;BME280_temperature;BME280_humidity;BME280_pressure;Samples;Min_cycle;Max_cycle;Signal;HPM_P1;HPM_P2
2021/10/21 00:01:59;;;;;;;;;;;13.00;99.90;;;;;;5036098;28;19913;-77
2021/10/21 00:04:24;;;;;;;;;;;13.00;99.90;;;;;;5034275;28;19917;-76
2021/10/21 00:06:50;;;;;;;;;;;13.00;99.90;;;;;;5031492;28;19971;-77
2021/10/21 00:09:15;;;;;;;;;;;13.00;99.90;;;;;;5035648;28;19972;-75
2021/10/21 00:11:42;;;;;;;;;;;13.10;99.90;;;;;;5035768;28;20004;-75
2021/10/21 00:14:07;;;;;;;;;;;13.10;99.90;;;;;;5036719;28;19909;-76
2021/10/21 00:16:33;;;;;;;;;;;13.10;99.90;;;;;;5033480;28;20319;-75
2021/10/21 00:18:58;;;;;;;;;;;13.10;99.90;;;;;;5036444;28;19968;-75
2021/10/21 00:21:24;;;;;;;;;;;13.00;99.90;;;;;;5035122;28;19971;-75
2021/10/21 00:23:50;;;;;;;;;;;13.00;99.90;;;;;;5035199;28;19917;-75
2021/10/21 00:26:16;;;;;;;;;;;13.00;99.90;;;;;;5033978;28;20045;-76
2021/10/21 00:28:41;;;;;;;;;;;13.00;99.90;;;;;;5031306;28;19992;-75
2021/10/21 00:31:07;;;;;;;;;;;13.00;99.90;;;;;;5034991;28;19944;-75
2021/10/21 00:33:32;;;;;;;;;;;13.10;99.90;;;;;;5034092;28;19940;-77
2021/10/21 00:35:58;;;;;;;;;;;13.10;99.90;;;;;;5034342;28;20205;-76
2021/10/21 00:38:23;;;;;;;;;;;13.10;99.90;;;;;;5033181;28;19948;-76
2021/10/21 00:40:49;;;;;;;;;;;13.10;99.90;;;;;;5033043;28;20430;-76
2021/10/21 00:43:15;;;;;;;;;;;13.10;99.90;;;;;;5033022;28;19928;-78
2021/10/21 00:45:41;;;;;;;;;;;13.00;99.90;;;;;;5041204;28;19917;-76
2021/10/21 00:48:06;;;;;;;;;;;13.00;99.90;;;;;;5033048;28;19917;-76
2021/10/21 00:50:32;;;;;;;;;;;13.00;99.90;;;;;;5033736;28;20217;-79
2021/10/21 00:52:59;;;;;;;;;;;13.00;99.90;;;;;;5044909;28;19987;-78
2021/10/21 00:55:25;;;;;;;;;;;12.90;99.90;;;;;;5031410;28;20240;-78
2021/10/21 00:57:50;;;;;;;;;;;12.80;99.90;;;;;;5031463;28;19917;-79
2021/10/21 01:00:16;;;;;;;;;;;12.80;99.90;;;;;;5033290;28;20343;-74
2021/10/21 01:02:42;;;;;;;;;;;12.70;99.90;;;;;;5035001;28;20236;-77
2021/10/21 01:05:08;;;;;;;;;;;12.60;99.90;;;;;;5033135;28;20311;-76
2021/10/21 01:07:34;;;;;;;;;;;12.40;99.90;;;;;;5031461;28;19924;-76
2021/10/21 01:09:59;;;;;;;;;;;12.10;99.90;;;;;;5046027;28;19913;-77
2021/10/21 01:12:25;;;;;;;;;;;12.00;99.90;;;;;;5033529;28;19948;-77
2021/10/21 01:14:50;;;;;;;;;;;11.90;99.90;;;;;;5035134;28;19964;-78
2021/10/21 01:17:16;;;;;;;;;;;11.80;99.90;;;;;;5033923;28;19960;-76
2021/10/21 01:19:42;;;;;;;;;;;11.70;99.90;;;;;;5034966;28;19960;-77
2021/10/21 01:22:08;;;;;;;;;;;11.70;99.90;;;;;;4935079;28;2773507;-84
2021/10/21 01:24:34;;;;;;;;;;;11.70;99.90;;;;;;5025967;28;19913;-76
2021/10/21 01:26:59;;;;;;;;;;;11.60;99.90;;;;;;5033244;28;19927;-76
2021/10/21 01:29:25;;;;;;;;;;;11.60;99.90;;;;;;5033864;28;19921;-77
2021/10/21 01:31:51;;;;;;;;;;;11.60;99.90;;;;;;5035722;28;19913;-77
2021/10/21 01:34:18;;;;;;;;;;;11.50;99.90;;;;;;5029504;28;19917;-79
2021/10/21 01:36:48;;;;;;;;;;;11.50;99.90;;;;;;5046280;28;19963;-77
2021/10/21 01:39:14;;;;;;;;;;;11.50;99.90;;;;;;5035028;28;19913;-76
2021/10/21 01:41:39;;;;;;;;;;;11.50;99.90;;;;;;5034286;28;19917;-78
2021/10/21 01:44:05;;;;;;;;;;;11.40;99.90;;;;;;5034361;28;19913;-77
2021/10/21 01:46:31;;;;;;;;;;;11.40;99.90;;;;;;5034065;28;20316;-76
2021/10/21 01:48:57;;;;;;;;;;;11.40;99.90;;;;;;5033380;28;19921;-80
2021/10/21 01:51:22;;;;;;;;;;;11.30;99.90;;;;;;5036708;28;19913;-87
2021/10/21 01:53:48;;;;;;;;;;;11.20;99.90;;;;;;5035874;28;19921;-82
2021/10/21 01:56:14;;;;;;;;;;;11.20;99.90;;;;;;5034412;28;19925;-78
2021/10/21 01:58:39;;;;;;;;;;;11.20;99.90;;;;;;5034069;28;20003;-82
2021/10/21 02:01:05;;;;;;;;;;;11.20;99.90;;;;;;5032292;28;19921;-86
2021/10/21 02:03:30;;;;;;;;;;;11.20;99.90;;;;;;5034553;28;20289;-85
2021/10/21 02:05:56;;;;;;;;;;;11.20;99.90;;;;;;5026538;28;19924;-84
2021/10/21 02:08:22;;;;;;;;;;;11.20;99.90;;;;;;5034001;28;19952;-80
2021/10/21 02:10:48;;;;;;;;;;;11.20;99.90;;;;;;5035768;28;19952;-94
2021/10/21 02:13:13;;;;;;;;;;;11.30;99.90;;;;;;5037227;28;20204;-86
2021/10/21 02:15:39;;;;;;;;;;;11.30;99.90;;;;;;5034314;28;19940;-87
2021/10/21 02:18:05;;;;;;;;;;;11.30;99.90;;;;;;5035689;28;19971;-82
2021/10/21 02:20:31;;;;;;;;;;;11.30;99.90;;;;;;5034280;28;19953;-85
2021/10/21 02:22:57;;;;;;;;;;;11.30;99.90;;;;;;5034972;28;20012;-85
2021/10/21 02:25:23;;;;;;;;;;;11.30;99.90;;;;;;5034615;28;20007;-84
2021/10/21 02:27:49;;;;;;;;;;;11.30;99.90;;;;;;5035075;28;19913;-85
2021/10/21 02:30:16;;;;;;;;;;;11.20;99.90;;;;;;5035570;28;20028;-88
2021/10/21 02:32:42;;;;;;;;;;;11.20;99.90;;;;;;5051638;28;19909;-84
2021/10/21 02:35:09;;;;;;;;;;;11.20;99.90;;;;;;5035929;28;19913;-82
2021/10/21 02:37:35;;;;;;;;;;;11.20;99.90;;;;;;5033020;28;19948;-79
2021/10/21 02:40:01;;;;;;;;;;;11.30;99.90;;;;;;5024442;28;19978;-76
2021/10/21 02:42:27;;;;;;;;;;;11.20;99.90;;;;;;5035469;28;19910;-80
2021/10/21 02:44:53;;;;;;;;;;;11.20;99.90;;;;;;5025649;28;19917;-76
2021/10/21 02:47:18;;;;;;;;;;;11.10;99.90;;;;;;5032678;28;19917;-75
2021/10/21 02:49:44;;;;;;;;;;;11.10;99.90;;;;;;5032545;28;19922;-75
2021/10/21 02:52:10;;;;;;;;;;;11.10;99.90;;;;;;5034861;28;19992;-76
2021/10/21 02:54:36;;;;;;;;;;;11.10;99.90;;;;;;5031500;28;19913;-75
2021/10/21 02:57:02;;;;;;;;;;;11.00;99.90;;;;;;5033477;28;20004;-75
2021/10/21 02:59:28;;;;;;;;;;;11.00;99.90;;;;;;5032785;28;20004;-75
2021/10/21 03:01:53;;;;;;;;;;;11.00;99.90;;;;;;5026695;28;19961;-74
2021/10/21 03:04:19;;;;;;;;;;;10.90;99.90;;;;;;5030762;28;20020;-75
2021/10/21 03:06:44;;;;;;;;;;;10.90;99.90;;;;;;5031328;28;19925;-76
2021/10/21 03:09:10;;;;;;;;;;;10.90;99.90;;;;;;5034031;28;19917;-75
2021/10/21 03:11:36;;;;;;;;;;;10.90;99.90;;;;;;5028094;28;20000;-75
2021/10/21 03:14:02;;;;;;;;;;;10.80;99.90;;;;;;5034420;28;19909;-75
2021/10/21 03:16:30;;;;;;;;;;;10.90;99.90;;;;;;5030677;28;19913;-76
2021/10/21 03:18:56;;;;;;;;;;;10.90;99.90;;;;;;5032446;28;19917;-75
2021/10/21 03:21:22;;;;;;;;;;;10.90;99.90;;;;;;5035000;28;19925;-75
2021/10/21 03:23:48;;;;;;;;;;;10.90;99.90;;;;;;5048769;28;19921;-75
2021/10/21 03:26:13;;;;;;;;;;;10.90;99.90;;;;;;5031809;28;19924;-74
2021/10/21 03:28:39;;;;;;;;;;;10.80;99.90;;;;;;5026651;28;19913;-73
2021/10/21 03:31:05;;;;;;;;;;;10.90;99.90;;;;;;5029742;28;19925;-74
2021/10/21 03:33:31;;;;;;;;;;;10.90;99.90;;;;;;5038257;28;19968;-75
2021/10/21 03:35:57;;;;;;;;;;;10.90;99.90;;;;;;5034129;28;19917;-74
2021/10/21 03:38:22;;;;;;;;;;;10.90;99.90;;;;;;5035288;28;19924;-73
2021/10/21 03:40:48;;;;;;;;;;;10.90;99.90;;;;;;5040333;28;19996;-74
2021/10/21 03:43:14;;;;;;;;;;;10.90;99.90;;;;;;5035052;28;19924;-73
2021/10/21 03:45:40;;;;;;;;;;;10.90;99.90;;;;;;5027952;28;19968;-74
2021/10/21 03:48:05;;;;;;;;;;;10.90;99.90;;;;;;5028448;28;19917;-73
2021/10/21 03:50:31;;;;;;;;;;;10.90;99.90;;;;;;5036106;28;19917;-75
2021/10/21 03:52:56;;;;;;;;;;;10.90;99.90;;;;;;5031390;28;19951;-74
2021/10/21 03:55:22;;;;;;;;;;;10.90;99.90;;;;;;5037453;28;19913;-74
2021/10/21 03:57:48;;;;;;;;;;;10.90;99.90;;;;;;5031014;28;19981;-74
2021/10/21 04:00:14;;;;;;;;;;;10.90;99.90;;;;;;5029270;28;20046;-74
2021/10/21 04:02:40;;;;;;;;;;;10.90;99.90;;;;;;5032168;28;20008;-74
2021/10/21 04:05:06;;;;;;;;;;;10.90;99.90;;;;;;5031434;28;20004;-74
2021/10/21 04:07:33;;;;;;;;;;;10.90;99.90;;;;;;5030335;28;20360;-75
2021/10/21 04:09:58;;;;;;;;;;;11.00;99.90;;;;;;5030768;28;19945;-74
2021/10/21 04:12:24;;;;;;;;;;;10.90;99.90;;;;;;5029094;28;19983;-74
2021/10/21 04:14:49;;;;;;;;;;;10.90;99.90;;;;;;5031030;28;20055;-74
2021/10/21 04:17:15;;;;;;;;;;;10.90;99.90;;;;;;5032148;28;19917;-74
2021/10/21 04:19:41;;;;;;;;;;;11.00;99.90;;;;;;5030047;28;20318;-75
2021/10/21 04:22:06;;;;;;;;;;;10.90;99.90;;;;;;5030890;28;20008;-74
2021/10/21 04:24:32;;;;;;;;;;;10.90;99.90;;;;;;5047091;28;19913;-74
2021/10/21 04:26:58;;;;;;;;;;;10.90;99.90;;;;;;5030812;28;19925;-74
2021/10/21 04:29:23;;;;;;;;;;;10.90;99.90;;;;;;5032270;28;20224;-74
2021/10/21 04:31:49;;;;;;;;;;;11.00;99.90;;;;;;5035757;28;20039;-74
2021/10/21 04:34:14;;;;;;;;;;;11.00;99.90;;;;;;5027943;28;19921;-74
2021/10/21 04:36:40;;;;;;;;;;;10.90;99.90;;;;;;5034513;28;19924;-74
2021/10/21 04:39:06;;;;;;;;;;;10.90;99.90;;;;;;5036651;28;19917;-74
2021/10/21 04:41:31;;;;;;;;;;;11.00;99.90;;;;;;5036575;28;19929;-74
2021/10/21 04:43:57;;;;;;;;;;;11.00;99.90;;;;;;5034119;28;19971;-73
2021/10/21 04:46:23;;;;;;;;;;;11.00;99.90;;;;;;5035614;28;19925;-78
2021/10/21 04:48:48;;;;;;;;;;;10.70;99.90;;;;;;5033655;28;19917;-76
2021/10/21 04:51:14;;;;;;;;;;;10.30;99.90;;;;;;5035161;28;19913;-77
2021/10/21 04:53:39;;;;;;;;;;;10.10;99.90;;;;;;5030981;28;20264;-76
2021/10/21 04:56:05;;;;;;;;;;;9.90;99.90;;;;;;5036643;28;19994;-77
2021/10/21 04:58:30;;;;;;;;;;;9.90;99.90;;;;;;5033613;28;19956;-76
2021/10/21 05:00:56;;;;;;;;;;;9.80;99.90;;;;;;5026604;28;20202;-75
2021/10/21 05:03:21;;;;;;;;;;;9.90;99.90;;;;;;5032581;28;19920;-76
2021/10/21 05:05:47;;;;;;;;;;;9.90;99.90;;;;;;5034574;28;19924;-77
2021/10/21 05:08:13;;;;;;;;;;;9.90;99.90;;;;;;5035619;28;19913;-76
2021/10/21 05:10:38;;;;;;;;;;;9.90;99.90;;;;;;5033790;28;20216;-73
2021/10/21 05:13:04;;;;;;;;;;;9.90;99.90;;;;;;5030234;28;19909;-76
2021/10/21 05:15:29;;;;;;;;;;;9.90;99.90;;;;;;5035370;28;19925;-77
2021/10/21 05:17:55;;;;;;;;;;;10.00;99.90;;;;;;5037185;28;19924;-75
2021/10/21 05:20:21;;;;;;;;;;;10.00;99.90;;;;;;5035972;28;19996;-74
2021/10/21 05:22:47;;;;;;;;;;;10.00;99.90;;;;;;5035338;28;20008;-73
2021/10/21 05:25:12;;;;;;;;;;;9.90;99.90;;;;;;5032256;28;19913;-73
2021/10/21 05:27:38;;;;;;;;;;;10.00;99.90;;;;;;5036516;28;19921;-74
2021/10/21 05:30:04;;;;;;;;;;;10.00;99.90;;;;;;5035330;28;19923;-73
2021/10/21 05:32:30;;;;;;;;;;;9.90;99.90;;;;;;5034309;28;19924;-73
2021/10/21 05:34:56;;;;;;;;;;;10.00;99.90;;;;;;5035078;28;19913;-75
2021/10/21 05:37:21;;;;;;;;;;;10.00;99.90;;;;;;5035131;28;19921;-74
2021/10/21 05:39:47;;;;;;;;;;;10.10;99.90;;;;;;5036813;28;19978;-76
2021/10/21 05:42:13;;;;;;;;;;;10.10;99.90;;;;;;5033087;28;19967;-78
2021/10/21 05:44:39;;;;;;;;;;;10.10;99.90;;;;;;5034609;28;19971;-76
2021/10/21 05:47:04;;;;;;;;;;;10.10;99.90;;;;;;5035085;28;20275;-75
2021/10/21 05:49:30;;;;;;;;;;;10.00;99.90;;;;;;5035786;28;19949;-73
2021/10/21 05:51:56;;;;;;;;;;;10.10;99.90;;;;;;5035190;28;19917;-72
2021/10/21 05:54:21;;;;;;;;;;;10.00;99.90;;;;;;5035244;28;19955;-76
2021/10/21 05:56:47;;;;;;;;;;;10.10;99.90;;;;;;5032749;28;19921;-75
2021/10/21 05:59:12;;;;;;;;;;;10.10;99.90;;;;;;5033577;28;20288;-80
2021/10/21 06:01:38;;;;;;;;;;;10.10;99.90;;;;;;5031624;28;20308;-74
2021/10/21 06:04:04;;;;;;;;;;;10.00;99.90;;;;;;5033109;28;19917;-75
2021/10/21 06:06:32;;;;;;;;;;;10.10;99.90;;;;;;5031501;28;20533;-76
2021/10/21 06:08:58;;;;;;;;;;;10.10;99.90;;;;;;5033257;28;19913;-76
2021/10/21 06:11:23;;;;;;;;;;;10.10;99.90;;;;;;5029797;28;19921;-76
2021/10/21 06:13:49;;;;;;;;;;;10.10;99.90;;;;;;5031852;28;19933;-75
2021/10/21 06:16:15;;;;;;;;;;;10.10;99.90;;;;;;5033211;28;19928;-76
2021/10/21 06:18:40;;;;;;;;;;;10.10;99.90;;;;;;5032853;28;19975;-75
2021/10/21 06:21:07;;;;;;;;;;;10.10;99.90;;;;;;5032314;28;20301;-75
2021/10/21 06:23:33;;;;;;;;;;;10.20;99.90;;;;;;5031911;28;20042;-75
2021/10/21 06:25:59;;;;;;;;;;;10.10;99.90;;;;;;5027107;28;19924;-76
2021/10/21 06:28:25;;;;;;;;;;;10.10;99.90;;;;;;5031833;28;19929;-74
2021/10/21 06:30:50;;;;;;;;;;;10.10;99.90;;;;;;5035051;28;20224;-76
2021/10/21 06:33:16;;;;;;;;;;;10.20;99.90;;;;;;5033589;28;19963;-73
2021/10/21 06:35:42;;;;;;;;;;;10.20;99.90;;;;;;5029802;28;19913;-72
2021/10/21 06:38:07;;;;;;;;;;;10.20;99.90;;;;;;5032106;28;19937;-73
2021/10/21 06:40:33;;;;;;;;;;;10.30;99.90;;;;;;5034223;28;19913;-74
2021/10/21 06:42:59;;;;;;;;;;;10.30;99.90;;;;;;5031993;28;19933;-77
2021/10/21 06:45:24;;;;;;;;;;;10.40;99.90;;;;;;5033232;28;20250;-75
2021/10/21 06:47:50;;;;;;;;;;;10.50;99.90;;;;;;5032546;28;20297;-76
2021/10/21 06:50:16;;;;;;;;;;;10.50;99.90;;;;;;5031374;28;19917;-73
2021/10/21 06:52:44;;;;;;;;;;;10.50;99.90;;;;;;5035351;28;20255;-73
2021/10/21 06:55:11;;;;;;;;;;;10.40;99.90;;;;;;5031297;28;19913;-83
2021/10/21 06:57:47;;;;;;;;;;;10.50;99.90;;;;;;5033021;28;19945;-87
2021/10/21 07:00:13;;;;;;;;;;;10.40;99.90;;;;;;5031733;28;20296;-81
2021/10/21 07:02:39;;;;;;;;;;;10.30;99.90;;;;;;5036062;28;19913;-82
2021/10/21 07:05:05;;;;;;;;;;;10.50;99.90;;;;;;5033899;28;19923;-89
2021/10/21 07:07:31;;;;;;;;;;;10.50;99.90;;;;;;5033772;28;19979;-79
2021/10/21 07:09:59;;;;;;;;;;;10.50;99.90;;;;;;5033301;28;19920;-79
2021/10/21 07:12:25;;;;;;;;;;;10.50;99.90;;;;;;5031961;28;19913;-82
2021/10/21 07:14:50;;;;;;;;;;;10.50;99.90;;;;;;5035052;28;20201;-86
2021/10/21 07:17:16;;;;;;;;;;;10.50;99.90;;;;;;5031250;28;19917;-77
2021/10/21 07:19:41;;;;;;;;;;;10.50;99.90;;;;;;5034954;28;20296;-78
2021/10/21 07:22:07;;;;;;;;;;;10.50;99.90;;;;;;5034933;28;20335;-79
2021/10/21 07:24:32;;;;;;;;;;;10.50;99.90;;;;;;5025637;28;19913;-78
2021/10/21 07:26:58;;;;;;;;;;;10.50;99.90;;;;;;5034069;28;19924;-83
2021/10/21 07:29:24;;;;;;;;;;;10.50;99.90;;;;;;5035878;28;20334;-85
2021/10/21 07:31:49;;;;;;;;;;;10.50;99.90;;;;;;5031762;28;19964;-85
2021/10/21 07:34:15;;;;;;;;;;;10.50;99.90;;;;;;5031435;28;20004;-83
2021/10/21 07:36:41;;;;;;;;;;;10.50;99.90;;;;;;5031925;28;19963;-78
2021/10/21 07:39:06;;;;;;;;;;;10.50;99.90;;;;;;5033139;28;20215;-78
2021/10/21 07:41:32;;;;;;;;;;;10.60;99.90;;;;;;5029268;28;20284;-74
2021/10/21 07:43:57;;;;;;;;;;;10.50;99.90;;;;;;5033628;28;19913;-76
2021/10/21 07:46:23;;;;;;;;;;;10.40;99.90;;;;;;5035948;28;20000;-75
2021/10/21 07:48:49;;;;;;;;;;;10.30;99.90;;;;;;5030632;28;20263;-76
2021/10/21 07:51:15;;;;;;;;;;;10.30;99.90;;;;;;5029892;28;20320;-77
2021/10/21 07:53:40;;;;;;;;;;;10.20;99.90;;;;;;5029915;28;19921;-73
2021/10/21 07:56:06;;;;;;;;;;;10.10;99.90;;;;;;5023278;28;19909;-74
2021/10/21 07:58:32;;;;;;;;;;;10.10;99.90;;;;;;5040400;28;19967;-73
2021/10/21 08:00:57;;;;;;;;;;;10.00;99.90;;;;;;5029581;28;20311;-74
2021/10/21 08:03:23;;;;;;;;;;;10.00;99.90;;;;;;5030681;28;19913;-73
2021/10/21 08:05:48;;;;;;;;;;;10.00;99.90;;;;;;5028488;28;20395;-73
2021/10/21 08:08:14;;;;;;;;;;;10.10;99.90;;;;;;5037037;28;20003;-73
2021/10/21 08:10:40;;;;;;;;;;;10.10;99.90;;;;;;5033535;28;19913;-73
2021/10/21 08:13:05;;;;;;;;;;;10.10;99.90;;;;;;5036603;28;19921;-77
2021/10/21 08:15:31;;;;;;;;;;;10.30;99.90;;;;;;5033726;28;19913;-75
2021/10/21 08:17:57;;;;;;;;;;;10.60;99.90;;;;;;5038525;28;20316;-92
2021/10/21 08:20:27;;;;;;;;;;;10.80;99.90;;;;;;5036564;28;20288;-91
2021/10/21 08:22:53;;;;;;;;;;;11.20;99.90;;;;;;5037456;28;19966;-75
2021/10/21 08:25:19;;;;;;;;;;;11.70;99.90;;;;;;5038281;28;20008;-86
2021/10/21 08:27:45;;;;;;;;;;;12.20;99.90;;;;;;5038621;28;20275;-82
2021/10/21 08:30:12;;;;;;;;;;;12.40;99.90;;;;;;5038269;28;20007;-81
2021/10/21 08:32:38;;;;;;;;;;;12.40;99.90;;;;;;5033308;28;19913;-83
2021/10/21 08:35:07;;;;;;;;;;;12.40;99.90;;;;;;5036696;28;19917;-85
2021/10/21 08:37:35;;;;;;;;;;;12.50;99.90;;;;;;5036223;28;20348;-87
2021/10/21 08:40:01;;;;;;;;;;;12.60;99.90;;;;;;5034056;28;20004;-79
2021/10/21 08:42:27;;;;;;;;;;;12.70;99.90;;;;;;5038009;28;20312;-78
2021/10/21 08:44:52;;;;;;;;;;;12.60;99.90;;;;;;5038259;28;19980;-86
2021/10/21 08:47:19;;;;;;;;;;;12.50;99.90;;;;;;5035549;28;20299;-82
2021/10/21 08:49:44;;;;;;;;;;;12.50;99.90;;;;;;5024160;28;19914;-89
2021/10/21 08:52:11;;;;;;;;;;;12.50;99.90;;;;;;5035924;28;19936;-82
2021/10/21 08:54:36;;;;;;;;;;;12.60;99.90;;;;;;5037119;28;19916;-79
2021/10/21 08:57:02;;;;;;;;;;;12.70;99.90;;;;;;5037613;28;19917;-86
2021/10/21 08:59:28;;;;;;;;;;;12.60;99.90;;;;;;5034864;28;20016;-87
2021/10/21 09:05:14;;;;;;;;;;;12.20;99.90;;;;;;5035200;28;20028;-83
2021/10/21 09:10:14;;;;;;;;;;;11.90;99.90;;;;;;5029792;28;19927;-78
2021/10/21 09:12:44;;;;;;;;;;;11.80;99.90;;;;;;5035644;28;19917;-81
2021/10/21 09:15:13;;;;;;;;;;;11.80;99.90;;;;;;5032739;28;19917;-82
2021/10/21 09:17:38;;;;;;;;;;;11.80;99.90;;;;;;5033409;28;19966;-81
2021/10/21 09:20:20;;;;;;;;;;;11.70;99.90;;;;;;5032675;28;20003;-84
2021/10/21 09:23:00;;;;;;;;;;;11.60;99.90;;;;;;5031487;28;19925;-79
2021/10/21 09:25:27;;;;;;;;;;;11.50;99.90;;;;;;5034708;28;19940;-85
2021/10/21 09:27:55;;;;;;;;;;;11.40;99.90;;;;;;5032396;28;19917;-86
2021/10/21 09:30:28;;;;;;;;;;;11.30;99.90;;;;;;5034758;28;20011;-80
2021/10/21 09:32:55;;;;;;;;;;;11.20;99.90;;;;;;5039681;28;20472;-79
2021/10/21 09:35:23;;;;;;;;;;;11.20;99.90;;;;;;5033263;28;19913;-76
2021/10/21 09:37:53;;;;;;;;;;;11.10;99.90;;;;;;5034141;28;19967;-84
2021/10/21 09:40:22;;;;;;;;;;;11.10;99.90;;;;;;5032103;28;19913;-77
2021/10/21 09:42:55;;;;;;;;;;;11.10;99.90;;;;;;5040382;28;19924;-79
2021/10/21 09:45:21;;;;;;;;;;;11.10;99.90;;;;;;5035830;28;19944;-81
2021/10/21 09:47:52;;;;;;;;;;;11.10;99.90;;;;;;5034145;28;19991;-83
2021/10/21 09:50:18;;;;;;;;;;;11.10;99.90;;;;;;5033751;28;19967;-80
2021/10/21 09:53:07;;;;;;;;;;;11.10;99.90;;;;;;5040676;28;20276;-75
2021/10/21 09:55:34;;;;;;;;;;;11.00;99.90;;;;;;5022834;28;20217;-74
2021/10/21 09:58:00;;;;;;;;;;;11.00;99.90;;;;;;5031001;28;19913;-76
2021/10/21 10:00:28;;;;;;;;;;;11.00;99.90;;;;;;5032266;28;19927;-74
2021/10/21 10:03:05;;;;;;;;;;;10.90;99.90;;;;;;5032192;28;19983;-73
2021/10/21 10:05:31;;;;;;;;;;;10.90;99.90;;;;;;5036463;28;20015;-73
2021/10/21 10:07:56;;;;;;;;;;;10.80;99.90;;;;;;5030963;28;20032;-75
2021/10/21 10:10:22;;;;;;;;;;;10.80;99.90;;;;;;5031614;28;19913;-75
2021/10/21 10:12:48;;;;;;;;;;;10.70;99.90;;;;;;5037347;28;20387;-74
2021/10/21 10:15:14;;;;;;;;;;;10.60;99.90;;;;;;5025248;28;19936;-73
2021/10/21 10:17:39;;;;;;;;;;;10.50;99.90;;;;;;5031035;28;20312;-73
2021/10/21 10:20:05;;;;;;;;;;;10.50;99.90;;;;;;5031347;28;19971;-74
2021/10/21 10:22:35;;;;;;;;;;;10.40;99.90;;;;;;5032577;28;19932;-73
2021/10/21 10:25:14;;;;;;;;;;;10.20;99.90;;;;;;5033745;28;19917;-74
2021/10/21 10:27:51;;;;;;;;;;;10.00;99.90;;;;;;5030796;28;19921;-74
2021/10/21 10:30:36;;;;;;;;;;;9.90;99.90;;;;;;5033774;28;19924;-75
2021/10/21 10:33:02;;;;;;;;;;;9.80;99.90;;;;;;5033865;28;19920;-74
2021/10/21 10:35:32;;;;;;;;;;;9.80;99.90;;;;;;5027204;28;19925;-75
2021/10/21 10:38:02;;;;;;;;;;;9.80;99.90;;;;;;5030698;28;19913;-75
2021/10/21 10:40:35;;;;;;;;;;;9.90;99.90;;;;;;5028431;28;19913;-74
2021/10/21 10:43:01;;;;;;;;;;;9.80;99.90;;;;;;5033882;28;20441;-75
2021/10/21 10:45:46;;;;;;;;;;;9.80;99.90;;;;;;5033845;28;19916;-74
2021/10/21 10:48:12;;;;;;;;;;;9.80;99.90;;;;;;5032871;28;19921;-74
2021/10/21 10:50:43;;;;;;;;;;;9.60;99.90;;;;;;5032227;28;19917;-74
2021/10/21 10:53:09;;;;;;;;;;;9.50;99.90;;;;;;5032410;28;19920;-74
2021/10/21 10:55:40;;;;;;;;;;;9.40;99.90;;;;;;5033791;28;19925;-74
2021/10/21 10:58:16;;;;;;;;;;;9.40;99.90;;;;;;5033216;28;20006;-74
2021/10/21 11:00:49;;;;;;;;;;;9.20;99.90;;;;;;5031919;28;19917;-74
2021/10/21 11:03:20;;;;;;;;;;;9.20;99.90;;;;;;5027244;28;20000;-73
2021/10/21 11:05:56;;;;;;;;;;;9.20;99.90;;;;;;5028165;28;19913;-75
2021/10/21 11:08:41;;;;;;;;;;;9.10;99.90;;;;;;5030331;28;19918;-74
2021/10/21 11:11:07;;;;;;;;;;;9.20;99.90;;;;;;5031446;28;20339;-77
2021/10/21 11:13:32;;;;;;;;;;;9.10;99.90;;;;;;5028607;28;19925;-76
2021/10/21 11:15:58;;;;;;;;;;;9.20;99.90;;;;;;5029692;28;19917;-76
2021/10/21 11:18:44;;;;;;;;;;;9.20;99.90;;;;;;5030419;28;19928;-75
2021/10/21 11:21:29;;;;;;;;;;;9.20;99.90;;;;;;5032731;28;19925;-75
2021/10/21 11:23:55;;;;;;;;;;;9.30;99.90;;;;;;5032562;28;20232;-77
2021/10/21 11:26:24;;;;;;;;;;;9.40;99.90;;;;;;5030526;28;19917;-78
2021/10/21 11:28:52;;;;;;;;;;;9.40;99.90;;;;;;5032538;28;20001;-79
2021/10/21 11:31:17;;;;;;;;;;;9.60;99.90;;;;;;5033094;28;19919;-76
2021/10/21 11:33:48;;;;;;;;;;;9.60;99.90;;;;;;5029433;28;19917;-75
2021/10/21 11:36:14;;;;;;;;;;;9.70;99.90;;;;;;5038768;28;19917;-78
2021/10/21 11:38:40;;;;;;;;;;;9.70;99.90;;;;;;5029021;28;19920;-79
2021/10/21 11:41:05;;;;;;;;;;;9.80;99.90;;;;;;5021246;28;19952;-77
2021/10/21 11:43:39;;;;;;;;;;;9.70;99.90;;;;;;5034395;28;19916;-77
2021/10/21 11:46:07;;;;;;;;;;;9.70;99.90;;;;;;5037290;28;19921;-77
2021/10/21 11:48:33;;;;;;;;;;;9.60;99.90;;;;;;5027958;28;19918;-79
2021/10/21 11:51:01;;;;;;;;;;;9.60;99.90;;;;;;5031366;28;19924;-77
2021/10/21 11:53:27;;;;;;;;;;;9.60;99.90;;;;;;5030718;28;19932;-76
2021/10/21 11:55:55;;;;;;;;;;;9.70;99.90;;;;;;5033555;28;20205;-78
2021/10/21 11:58:25;;;;;;;;;;;9.80;99.90;;;;;;5047449;28;19913;-75
2021/10/21 12:00:52;;;;;;;;;;;9.80;99.90;;;;;;5033762;28;19914;-76
2021/10/21 12:03:17;;;;;;;;;;;10.00;99.90;;;;;;5031425;28;19920;-76
2021/10/21 12:05:44;;;;;;;;;;;10.20;99.90;;;;;;5025736;28;19917;-80
2021/10/21 12:08:11;;;;;;;;;;;10.40;99.90;;;;;;5029283;28;19925;-76
2021/10/21 12:10:46;;;;;;;;;;;10.30;99.90;;;;;;5027685;28;19913;-75
2021/10/21 12:13:24;;;;;;;;;;;10.20;99.90;;;;;;5038880;28;19913;-75
2021/10/21 12:15:51;;;;;;;;;;;10.10;99.90;;;;;;5037173;28;19924;-74
2021/10/21 12:18:17;;;;;;;;;;;9.90;99.90;;;;;;5035170;28;19959;-76
2021/10/21 12:20:53;;;;;;;;;;;10.00;99.90;;;;;;5037370;28;19921;-75
2021/10/21 12:23:26;;;;;;;;;;;10.00;99.90;;;;;;5037422;28;19959;-75
2021/10/21 12:25:53;;;;;;;;;;;10.00;99.90;;;;;;5026216;28;19956;-75
2021/10/21 12:28:19;;;;;;;;;;;9.90;99.90;;;;;;5023420;28;20028;-76
2021/10/21 12:30:45;;;;;;;;;;;9.90;99.90;;;;;;5038058;28;20286;-76
2021/10/21 12:33:15;;;;;;;;;;;10.00;99.90;;;;;;5036835;28;19932;-76
2021/10/21 12:36:16;;;;;;;;;;;10.10;99.90;;;;;;5034579;28;19913;-78
2021/10/21 12:38:42;;;;;;;;;;;10.10;99.90;;;;;;4993983;28;19922;-76
2021/10/21 12:41:07;;;;;;;;;;;10.20;99.90;;;;;;4987472;28;19913;-77
2021/10/21 12:43:33;;;;;;;;;;;10.20;99.90;;;;;;4995501;28;19920;-79
2021/10/21 12:46:04;;;;;;;;;;;10.10;99.90;;;;;;4968272;28;19992;-74
2021/10/21 12:48:32;;;;;;;;;;;9.70;99.90;;;;;;4995345;28;20317;-74
2021/10/21 12:51:14;;;;;;;;;;;9.50;99.90;;;;;;4995281;28;19965;-74
2021/10/21 12:54:00;;;;;;;;;;;9.40;99.90;;;;;;4968065;28;20222;-74
2021/10/21 12:56:26;;;;;;;;;;;9.30;99.90;;;;;;4995687;28;20377;-75
2021/10/21 12:58:58;;;;;;;;;;;9.30;99.90;;;;;;4995787;28;20000;-77
2021/10/21 13:01:25;;;;;;;;;;;9.30;99.90;;;;;;4995820;28;19910;-76
2021/10/21 13:03:51;;;;;;;;;;;9.30;99.90;;;;;;4996029;28;20255;-76
2021/10/21 13:06:19;;;;;;;;;;;9.40;99.90;;;;;;4995462;28;19914;-78
2021/10/21 13:08:51;;;;;;;;;;;9.40;99.90;;;;;;4995775;28;19920;-78
2021/10/21 13:11:19;;;;;;;;;;;9.50;99.90;;;;;;4992021;28;20001;-78
2021/10/21 13:13:50;;;;;;;;;;;9.60;99.90;;;;;;4990530;28;19949;-79
2021/10/21 13:16:16;;;;;;;;;;;9.90;99.90;;;;;;5034331;28;19920;-79
2021/10/21 13:18:42;;;;;;;;;;;10.00;99.90;;;;;;5037062;28;20304;-78
2021/10/21 13:21:07;;;;;;;;;;;10.00;99.90;;;;;;5036393;28;19937;-79
2021/10/21 13:23:34;;;;;;;;;;;10.10;99.90;;;;;;5025892;28;19931;-80
2021/10/21 13:26:00;;;;;;;;;;;10.10;99.90;;;;;;5036709;28;19913;-78
2021/10/21 13:28:25;;;;;;;;;;;10.20;99.90;;;;;;5034257;28;20319;-76
2021/10/21 13:30:51;;;;;;;;;;;10.40;99.90;;;;;;5042514;28;19916;-79
2021/10/21 13:33:17;;;;;;;;;;;10.50;99.90;;;;;;5041074;28;20328;-77
2021/10/21 13:35:43;;;;;;;;;;;10.50;99.90;;;;;;5036799;28;19913;-77
2021/10/21 13:38:11;;;;;;;;;;;10.50;99.90;;;;;;5036383;28;19909;-78
2021/10/21 13:40:38;;;;;;;;;;;10.40;99.90;;;;;;5026258;28;20350;-81
2021/10/21 13:43:03;;;;;;;;;;;10.50;99.90;;;;;;5030436;28;20225;-77
2021/10/21 13:45:29;;;;;;;;;;;10.50;99.90;;;;;;5035902;28;19913;-80
2021/10/21 13:47:55;;;;;;;;;;;10.50;99.90;;;;;;5040727;28;19921;-79
2021/10/21 13:50:20;;;;;;;;;;;10.60;99.90;;;;;;5032947;28;19909;-80
2021/10/21 13:52:46;;;;;;;;;;;10.70;99.90;;;;;;5035484;28;19983;-79
2021/10/21 13:55:12;;;;;;;;;;;10.70;99.90;;;;;;5030200;28;19955;-78
2021/10/21 13:57:37;;;;;;;;;;;10.70;99.90;;;;;;5035109;28;19909;-77
2021/10/21 14:00:09;;;;;;;;;;;10.80;99.90;;;;;;5030381;28;19916;-78
2021/10/21 14:02:35;;;;;;;;;;;10.90;99.90;;;;;;5026152;28;19913;-78
2021/10/21 14:05:00;;;;;;;;;;;11.00;99.90;;;;;;5023079;28;20264;-81
2021/10/21 14:07:26;;;;;;;;;;;11.00;99.90;;;;;;5034583;28;19963;-78
2021/10/21 14:09:53;;;;;;;;;;;11.00;99.90;;;;;;5034066;28;19913;-79
2021/10/21 14:12:19;;;;;;;;;;;11.00;99.90;;;;;;5036254;28;19963;-77
2021/10/21 14:14:45;;;;;;;;;;;11.10;99.90;;;;;;5031265;28;20334;-76
2021/10/21 14:17:14;;;;;;;;;;;11.10;99.90;;;;;;5025400;28;20253;-79
2021/10/21 14:19:40;;;;;;;;;;;11.20;99.90;;;;;;5036079;28;19966;-78
2021/10/21 14:22:05;;;;;;;;;;;11.10;99.90;;;;;;5033520;28;19929;-77
2021/10/21 14:24:33;;;;;;;;;;;11.00;99.90;;;;;;5036089;28;19916;-77